Time;durP1;ratioP1;P1;durP2;ratioP2;P2;SDS_P1;SDS_P2;PMS_P1;PMS_P2;Temp;Humidity;BMP_temperature;BMP_pressure;BME280_temperature;BME280_humidity;BME280_pressure;Samples;Min_cycle;Max_cycle;Signal;HPM_P1;HPM_P2
2022/04/25 00:01:07;;;;;;;83.60;36.42;;;8.50;99.90;;;;;;5016163;28;20072;-59
2022/04/25 00:03:33;;;;;;;112.85;43.05;;;8.60;99.90;;;;;;5038152;28;20029;-59
2022/04/25 00:05:58;;;;;;;107.90;33.65;;;8.50;99.90;;;;;;5034731;28;20036;-59
2022/04/25 00:08:24;;;;;;;110.78;34.72;;;8.50;99.90;;;;;;5036268;28;20029;-59
2022/04/25 00:10:50;;;;;;;85.65;37.70;;;8.50;99.90;;;;;;5036212;28;20019;-59
2022/04/25 00:13:15;;;;;;;51.83;32.30;;;8.50;99.90;;;;;;5032549;28;20026;-60
2022/04/25 00:15:42;;;;;;;69.38;34.33;;;8.50;99.90;;;;;;5037232;28;20033;-59
2022/04/25 00:18:08;;;;;;;80.82;37.38;;;8.50;99.90;;;;;;5034833;28;20025;-59
2022/04/25 00:20:34;;;;;;;45.38;28.08;;;8.50;99.90;;;;;;5036122;28;20112;-59
2022/04/25 00:23:06;;;;;;;44.80;25.63;;;8.40;99.90;;;;;;5035949;28;20112;-59
2022/04/25 00:25:33;;;;;;;50.67;30.55;;;8.50;99.90;;;;;;5033254;28;20112;-60
2022/04/25 00:27:59;;;;;;;51.47;29.10;;;8.40;99.90;;;;;;5033127;28;20026;-59
2022/04/25 00:30:25;;;;;;;41.35;24.50;;;8.40;99.90;;;;;;5036373;28;20079;-60
2022/04/25 00:32:51;;;;;;;49.53;27.08;;;8.40;99.90;;;;;;5035377;28;20033;-59
2022/04/25 00:35:17;;;;;;;49.90;28.35;;;8.50;99.90;;;;;;5035538;28;20494;-59
2022/04/25 00:37:43;;;;;;;43.35;26.08;;;8.50;99.90;;;;;;5035762;28;20044;-59
2022/04/25 00:40:10;;;;;;;52.90;28.23;;;8.60;99.90;;;;;;5030977;28;20030;-60
2022/04/25 00:42:36;;;;;;;60.95;31.48;;;8.60;99.90;;;;;;5037443;28;20470;-60
2022/04/25 00:45:02;;;;;;;41.10;25.83;;;8.60;99.90;;;;;;5034083;28;20095;-60
2022/04/25 00:47:29;;;;;;;53.20;30.08;;;8.60;99.90;;;;;;5034959;28;20481;-59
2022/04/25 00:49:55;;;;;;;48.63;28.50;;;8.70;99.90;;;;;;5035368;28;20033;-59
2022/04/25 00:52:21;;;;;;;46.28;27.30;;;8.70;99.90;;;;;;5032563;28;20030;-59
2022/04/25 00:54:47;;;;;;;40.85;24.27;;;8.80;99.90;;;;;;5034946;28;20103;-59
2022/04/25 00:57:12;;;;;;;44.08;25.48;;;8.80;99.90;;;;;;5036308;28;20109;-59
2022/04/25 00:59:39;;;;;;;50.25;27.35;;;8.80;99.90;;;;;;5035174;28;20033;-59
2022/04/25 01:02:06;;;;;;;53.28;29.58;;;8.80;99.90;;;;;;5034041;28;20025;-59
2022/04/25 01:04:32;;;;;;;43.63;26.05;;;8.70;99.90;;;;;;5032522;28;20032;-59
2022/04/25 01:06:58;;;;;;;58.33;30.73;;;8.60;99.90;;;;;;5032393;28;20033;-58
2022/04/25 01:09:25;;;;;;;35.70;22.58;;;8.60;99.90;;;;;;5035696;28;20380;-59
2022/04/25 01:11:52;;;;;;;38.72;23.17;;;8.50;99.90;;;;;;5035085;28;20025;-59
2022/04/25 01:14:20;;;;;;;44.28;24.50;;;8.50;99.90;;;;;;5035051;28;20030;-59
2022/04/25 01:16:50;;;;;;;50.75;26.42;;;8.50;99.90;;;;;;5034637;28;20379;-59
2022/04/25 01:19:16;;;;;;;63.50;33.22;;;8.60;99.90;;;;;;5031424;28;20088;-59
2022/04/25 01:21:50;;;;;;;63.55;30.80;;;8.60;99.90;;;;;;5035612;28;20104;-59
2022/04/25 01:27:16;;;;;;;44.58;25.20;;;8.60;99.90;;;;;;5035061;28;20140;-58
2022/04/25 01:29:43;;;;;;;92.78;35.28;;;8.60;99.90;;;;;;5034309;28;20048;-59
2022/04/25 01:32:09;;;;;;;103.68;38.53;;;8.60;99.90;;;;;;5034802;28;20021;-59
2022/04/25 01:34:39;;;;;;;88.45;34.95;;;8.60;99.90;;;;;;5033652;28;20504;-59
2022/04/25 01:37:06;;;;;;;73.03;34.70;;;8.50;99.90;;;;;;5030754;28;20028;-58
2022/04/25 01:39:37;;;;;;;81.18;36.00;;;8.50;99.90;;;;;;5036812;28;20414;-59
2022/04/25 01:42:05;;;;;;;99.55;36.95;;;8.60;99.90;;;;;;5034461;28;20014;-59
2022/04/25 01:44:31;;;;;;;218.95;52.75;;;8.50;99.90;;;;;;5032806;28;20479;-61
2022/04/25 01:46:57;;;;;;;184.18;54.35;;;8.50;99.90;;;;;;5032048;28;20024;-59
2022/04/25 01:49:23;;;;;;;92.15;31.98;;;8.70;99.90;;;;;;5031696;28;20025;-59
2022/04/25 01:51:49;;;;;;;71.57;30.80;;;8.70;99.90;;;;;;5032824;28;20064;-59
2022/04/25 01:54:27;;;;;;;103.32;33.45;;;8.80;99.90;;;;;;5035521;28;20037;-59
2022/04/25 01:56:54;;;;;;;114.53;40.70;;;8.90;99.90;;;;;;5034120;28;20061;-59
2022/04/25 01:59:20;;;;;;;58.15;33.85;;;9.00;99.90;;;;;;5033957;28;20084;-59
2022/04/25 02:01:46;;;;;;;69.30;36.63;;;9.00;99.90;;;;;;5033143;28;20021;-59
2022/04/25 02:04:12;;;;;;;53.75;30.88;;;8.90;99.90;;;;;;5030080;28;20041;-59
2022/04/25 02:06:38;;;;;;;87.03;36.22;;;8.90;99.90;;;;;;5035717;28;20305;-59
2022/04/25 02:09:04;;;;;;;63.70;37.10;;;9.00;99.90;;;;;;5034496;28;20048;-59
2022/04/25 02:11:31;;;;;;;53.72;32.40;;;9.00;99.90;;;;;;5033633;28;20022;-59
2022/04/25 02:13:57;;;;;;;53.30;31.95;;;9.00;99.90;;;;;;5033918;28;20037;-59
2022/04/25 02:16:24;;;;;;;49.28;30.55;;;9.00;99.90;;;;;;5031625;28;20021;-59
2022/04/25 02:18:51;;;;;;;50.45;30.35;;;9.00;99.90;;;;;;5032851;28;20045;-59
2022/04/25 02:21:16;;;;;;;48.65;29.65;;;9.00;99.90;;;;;;5035600;28;20017;-59
2022/04/25 02:23:43;;;;;;;44.35;29.30;;;9.00;99.90;;;;;;5032675;28;20108;-59
2022/04/25 02:26:09;;;;;;;47.38;30.80;;;8.80;99.90;;;;;;5032375;28;20034;-59
2022/04/25 02:28:36;;;;;;;46.65;30.38;;;8.80;99.90;;;;;;5032705;28;20021;-59
2022/04/25 02:31:04;;;;;;;68.43;36.22;;;8.70;99.90;;;;;;5030556;28;20030;-59
2022/04/25 02:33:31;;;;;;;45.55;29.83;;;8.80;99.90;;;;;;5035861;28;20045;-59
2022/04/25 02:35:56;;;;;;;53.70;30.50;;;8.80;99.90;;;;;;5033788;28;20624;-58
2022/04/25 02:38:22;;;;;;;80.28;38.72;;;8.80;99.90;;;;;;5032202;28;20125;-59
2022/04/25 02:41:04;;;;;;;109.28;41.35;;;8.90;99.90;;;;;;5032395;28;20403;-59
2022/04/25 02:43:40;;;;;;;63.38;35.83;;;9.00;99.90;;;;;;5031780;28;20390;-59
2022/04/25 02:46:08;;;;;;;54.92;31.23;;;8.90;99.90;;;;;;5029619;28;20248;-59
2022/04/25 02:48:35;;;;;;;38.40;26.65;;;8.90;99.90;;;;;;5035814;28;20077;-59
2022/04/25 02:51:03;;;;;;;64.97;34.13;;;8.90;99.90;;;;;;5032533;28;20053;-59
2022/04/25 02:53:30;;;;;;;74.97;36.22;;;9.00;99.90;;;;;;5033498;28;20045;-59
2022/04/25 02:55:56;;;;;;;58.70;29.90;;;9.00;99.90;;;;;;5033671;28;20492;-59
2022/04/25 02:58:25;;;;;;;78.45;31.75;;;9.10;99.90;;;;;;5030652;28;20029;-59
2022/04/25 03:00:51;;;;;;;98.57;34.47;;;9.10;99.90;;;;;;5032556;28;20021;-58
2022/04/25 03:03:19;;;;;;;233.45;38.90;;;9.10;99.90;;;;;;5036644;28;20022;-60
2022/04/25 03:05:47;;;;;;;89.05;37.08;;;9.10;99.90;;;;;;5034861;28;20037;-59
2022/04/25 03:08:18;;;;;;;227.05;47.00;;;9.10;99.90;;;;;;5037164;28;20465;-59
2022/04/25 03:10:45;;;;;;;281.77;56.22;;;9.00;99.90;;;;;;5036860;28;20033;-59
2022/04/25 03:13:12;;;;;;;366.90;63.08;;;9.00;99.90;;;;;;5033258;28;20022;-59
2022/04/25 03:15:38;;;;;;;201.38;50.53;;;9.00;99.90;;;;;;5038988;28;20061;-59
2022/04/25 03:18:08;;;;;;;113.10;35.75;;;9.00;99.90;;;;;;5036980;28;20061;-59
2022/04/25 03:20:34;;;;;;;60.13;27.00;;;9.10;99.90;;;;;;5037248;28;20550;-59
2022/04/25 03:23:01;;;;;;;220.38;51.88;;;9.10;99.90;;;;;;5036916;28;20481;-59
2022/04/25 03:25:28;;;;;;;114.15;37.28;;;9.10;99.90;;;;;;5034936;28;20461;-59
2022/04/25 03:27:54;;;;;;;113.50;38.08;;;9.00;99.90;;;;;;5034599;28;20105;-58
2022/04/25 03:30:20;;;;;;;100.70;44.65;;;9.00;99.90;;;;;;5036740;28;20113;-59
2022/04/25 03:32:47;;;;;;;69.72;32.70;;;9.00;99.90;;;;;;5036831;28;20113;-59
2022/04/25 03:35:17;;;;;;;73.90;37.50;;;9.00;99.90;;;;;;5036593;28;20037;-59
2022/04/25 03:37:44;;;;;;;112.70;45.00;;;9.00;99.90;;;;;;5036456;28;20523;-59
2022/04/25 03:40:11;;;;;;;82.88;40.45;;;9.00;99.90;;;;;;5031174;28;20075;-59
2022/04/25 03:42:38;;;;;;;65.65;35.03;;;9.00;99.90;;;;;;5045891;28;20017;-59
2022/04/25 03:45:09;;;;;;;143.85;46.67;;;9.10;99.90;;;;;;5034088;28;20376;-59
2022/04/25 03:47:35;;;;;;;61.70;36.40;;;9.10;99.90;;;;;;5036318;28;20057;-59
2022/04/25 03:50:02;;;;;;;53.63;31.75;;;9.00;99.90;;;;;;5036631;28;20040;-60
2022/04/25 03:52:28;;;;;;;81.10;34.72;;;9.10;99.90;;;;;;5034662;28;20112;-59
2022/04/25 03:57:40;;;;;;;154.57;34.30;;;9.10;99.90;;;;;;5007925;28;20133;-59
2022/04/25 04:00:07;;;;;;;358.60;51.95;;;9.20;99.90;;;;;;4991680;28;20125;-59
2022/04/25 04:02:33;;;;;;;195.13;39.03;;;9.10;99.90;;;;;;5007142;28;20584;-59
2022/04/25 04:05:00;;;;;;;186.98;35.53;;;9.10;99.90;;;;;;5011310;28;20026;-59
2022/04/25 04:07:26;;;;;;;221.20;40.42;;;9.00;99.90;;;;;;5011537;28;20038;-59
2022/04/25 04:09:52;;;;;;;138.13;30.95;;;9.10;99.90;;;;;;5010859;28;20185;-59
2022/04/25 04:12:19;;;;;;;188.13;39.08;;;9.10;99.90;;;;;;5011627;28;20062;-59
2022/04/25 04:14:46;;;;;;;249.85;52.67;;;9.10;99.90;;;;;;5010200;28;20042;-60
2022/04/25 04:17:12;;;;;;;382.25;63.20;;;9.00;99.90;;;;;;5010887;28;20026;-59
2022/04/25 04:19:39;;;;;;;324.20;66.88;;;9.00;99.90;;;;;;5011268;28;20141;-60
2022/04/25 04:22:06;;;;;;;226.27;54.92;;;9.00;99.90;;;;;;5011086;28;20499;-59
2022/04/25 04:24:32;;;;;;;134.07;39.13;;;8.90;99.90;;;;;;5011116;28;20034;-59
2022/04/25 04:27:05;;;;;;;205.80;49.00;;;9.00;99.90;;;;;;5011407;28;20038;-59
2022/04/25 04:29:36;;;;;;;50.15;25.38;;;9.00;99.90;;;;;;5010878;28;20038;-59
2022/04/25 04:32:05;;;;;;;82.75;33.75;;;9.00;99.90;;;;;;5010799;28;20030;-59
2022/04/25 04:34:32;;;;;;;54.08;27.38;;;8.90;99.90;;;;;;5021308;28;20044;-59
2022/04/25 04:36:59;;;;;;;160.65;40.83;;;8.90;99.90;;;;;;5031554;28;20048;-59
2022/04/25 04:39:24;;;;;;;142.48;45.05;;;8.90;99.90;;;;;;5034570;28;20121;-59
2022/04/25 04:41:50;;;;;;;73.72;33.25;;;8.90;99.90;;;;;;5035541;28;20037;-59
2022/04/25 04:44:17;;;;;;;172.75;51.58;;;8.90;99.90;;;;;;5035479;28;20112;-60
2022/04/25 04:46:43;;;;;;;45.00;28.02;;;8.80;99.90;;;;;;5035741;28;20024;-59
2022/04/25 04:49:09;;;;;;;105.28;38.08;;;8.80;99.90;;;;;;5031347;28;20029;-59
2022/04/25 04:51:35;;;;;;;43.38;27.15;;;8.80;99.90;;;;;;5037288;28;20025;-59
2022/04/25 04:54:02;;;;;;;60.40;28.83;;;8.80;99.90;;;;;;5035252;28;20087;-60
2022/04/25 04:56:29;;;;;;;83.38;26.40;;;8.80;99.90;;;;;;5035152;28;20467;-59
2022/04/25 04:58:55;;;;;;;183.68;33.90;;;8.90;99.90;;;;;;5033845;28;20032;-59
2022/04/25 05:01:20;;;;;;;96.20;27.98;;;8.80;99.90;;;;;;5031216;28;20022;-60
2022/04/25 05:03:46;;;;;;;101.78;25.98;;;8.70;99.90;;;;;;5034888;28;20391;-60
2022/04/25 05:06:12;;;;;;;178.68;37.38;;;8.70;99.90;;;;;;5035916;28;20381;-59
2022/04/25 05:08:38;;;;;;;136.43;37.63;;;8.70;99.90;;;;;;5034787;28;20033;-59
2022/04/25 05:11:05;;;;;;;88.05;28.30;;;8.70;99.90;;;;;;5034017;28;20487;-59
2022/04/25 05:13:31;;;;;;;134.40;38.42;;;8.70;99.90;;;;;;5033393;28;20502;-59
2022/04/25 05:15:58;;;;;;;135.95;40.53;;;8.70;99.90;;;;;;5032150;28;20079;-58
2022/04/25 05:18:24;;;;;;;196.73;43.22;;;8.60;99.90;;;;;;5035328;28;20120;-59
2022/04/25 05:20:50;;;;;;;198.43;48.63;;;8.70;99.90;;;;;;5033574;28;20443;-59
2022/04/25 05:23:16;;;;;;;89.28;27.73;;;8.70;99.90;;;;;;5033449;28;20491;-59
2022/04/25 05:25:42;;;;;;;103.05;33.05;;;8.90;99.90;;;;;;5034618;28;20021;-59
2022/04/25 05:28:08;;;;;;;218.75;43.55;;;8.80;99.90;;;;;;5030528;28;20025;-59
2022/04/25 05:30:34;;;;;;;303.50;44.10;;;8.80;99.90;;;;;;5036349;28;20036;-59
2022/04/25 05:33:03;;;;;;;154.98;31.05;;;8.70;99.90;;;;;;5034818;28;20029;-58
2022/04/25 05:35:33;;;;;;;307.52;47.80;;;8.80;99.90;;;;;;5034467;28;20041;-59
2022/04/25 05:38:00;;;;;;;254.85;46.80;;;8.80;99.90;;;;;;5033073;28;20072;-58
2022/04/25 05:40:26;;;;;;;311.88;51.22;;;8.80;99.90;;;;;;5030899;28;20032;-59
2022/04/25 05:42:55;;;;;;;216.88;39.85;;;8.90;99.90;;;;;;5032750;28;20039;-59
2022/04/25 05:45:22;;;;;;;268.58;45.40;;;9.00;99.90;;;;;;5034472;28;20021;-59
2022/04/25 05:47:54;;;;;;;105.80;26.83;;;9.10;99.90;;;;;;5034302;28;20029;-59
2022/04/25 05:53:05;;;;;;;188.20;35.63;;;9.10;99.90;;;;;;5034446;28;20092;-59
2022/04/25 05:55:31;;;;;;;106.70;25.98;;;9.20;99.90;;;;;;5031406;28;20025;-59
2022/04/25 05:57:57;;;;;;;110.88;21.65;;;9.20;99.90;;;;;;5031371;28;20030;-60
2022/04/25 06:00:24;;;;;;;160.80;32.17;;;9.30;99.90;;;;;;5036570;28;20053;-60
2022/04/25 06:02:50;;;;;;;160.15;18.83;;;9.10;99.90;;;;;;5034064;28;20033;-59
2022/04/25 06:05:16;;;;;;;126.13;18.38;;;9.30;99.90;;;;;;5033766;28;20021;-59
2022/04/25 06:07:43;;;;;;;230.68;28.35;;;9.30;99.90;;;;;;5034109;28;20033;-59
2022/04/25 06:10:13;;;;;;;188.82;20.00;;;9.30;99.90;;;;;;5030219;28;20034;-59
2022/04/25 06:12:42;;;;;;;142.88;17.05;;;9.40;99.90;;;;;;5035417;28;20028;-59
2022/04/25 06:15:09;;;;;;;223.20;27.77;;;9.50;99.90;;;;;;5034700;28;20033;-59
2022/04/25 06:17:36;;;;;;;324.45;30.13;;;9.60;99.90;;;;;;5032581;28;20030;-59
2022/04/25 06:20:06;;;;;;;130.48;17.85;;;9.40;99.90;;;;;;5032403;28;20037;-59
2022/04/25 06:22:33;;;;;;;272.98;26.77;;;9.70;99.90;;;;;;5032471;28;20036;-58
2022/04/25 06:24:58;;;;;;;261.17;26.48;;;9.70;99.90;;;;;;5030704;28;20029;-58
2022/04/25 06:27:24;;;;;;;149.07;19.15;;;9.80;99.90;;;;;;5035684;28;20037;-58
2022/04/25 06:29:52;;;;;;;145.55;20.75;;;10.30;99.90;;;;;;5033784;28;20044;-59
2022/04/25 06:32:21;;;;;;;221.55;27.80;;;10.40;99.90;;;;;;5033857;28;20095;-58
2022/04/25 06:34:47;;;;;;;58.63;16.08;;;10.30;99.90;;;;;;5032329;28;20033;-58
2022/04/25 06:37:13;;;;;;;64.65;15.63;;;10.80;99.90;;;;;;5031551;28;20038;-59
2022/04/25 06:39:39;;;;;;;86.45;16.05;;;10.90;99.90;;;;;;5039027;28;20072;-58
2022/04/25 06:42:05;;;;;;;242.45;17.80;;;10.50;99.90;;;;;;5036504;28;20089;-59
2022/04/25 06:44:32;;;;;;;99.40;13.93;;;10.60;99.90;;;;;;5037929;28;20034;-58
2022/04/25 06:46:58;;;;;;;59.85;14.70;;;10.20;99.90;;;;;;5037426;28;20494;-58
2022/04/25 06:49:24;;;;;;;257.20;16.02;;;10.40;99.90;;;;;;5034692;28;20025;-59
2022/04/25 06:51:58;;;;;;;211.43;15.32;;;10.50;99.90;;;;;;5036255;28;20213;-59
2022/04/25 06:54:25;;;;;;;301.27;21.33;;;10.50;99.90;;;;;;5038316;28;20486;-60
2022/04/25 06:56:52;;;;;;;112.90;12.35;;;10.50;99.90;;;;;;5036141;28;20393;-59
2022/04/25 06:59:19;;;;;;;213.73;16.17;;;10.70;99.90;;;;;;5035156;28;20040;-59
2022/04/25 07:01:45;;;;;;;60.00;11.23;;;10.80;99.90;;;;;;5037258;28;20032;-60
2022/04/25 07:04:14;;;;;;;231.98;14.52;;;10.90;99.90;;;;;;5032854;28;20087;-59
2022/04/25 07:06:40;;;;;;;107.68;11.52;;;10.90;99.90;;;;;;5038423;28;20035;-61
2022/04/25 07:09:07;;;;;;;56.92;10.18;;;11.50;99.90;;;;;;5038119;28;20029;-61
2022/04/25 07:11:33;;;;;;;71.10;9.70;;;11.90;99.90;;;;;;5037110;28;20546;-60
2022/04/25 07:14:02;;;;;;;245.43;12.15;;;12.00;99.90;;;;;;5037249;28;20048;-60
2022/04/25 07:16:29;;;;;;;30.13;9.80;;;11.80;99.90;;;;;;5035291;28;20025;-60
2022/04/25 07:18:55;;;;;;;37.88;9.45;;;12.00;99.90;;;;;;5034277;28;20049;-59
2022/04/25 07:29:33;;;;;;;86.30;9.68;;;13.30;99.90;;;;;;5037518;28;20123;-59
2022/04/25 07:31:59;;;;;;;20.90;8.73;;;14.50;99.90;;;;;;5036375;28;20021;-59
2022/04/25 07:34:25;;;;;;;11.48;8.02;;;15.80;99.90;;;;;;5033257;28;20045;-59
2022/04/25 07:36:54;;;;;;;12.77;8.57;;;16.00;99.90;;;;;;5035642;28;20033;-59
2022/04/25 07:39:23;;;;;;;27.67;8.65;;;15.90;99.90;;;;;;5036277;28;20049;-59
2022/04/25 07:41:50;;;;;;;13.68;7.10;;;15.70;99.90;;;;;;5036655;28;20030;-59
2022/04/25 07:44:16;;;;;;;9.85;7.70;;;15.40;99.90;;;;;;5036730;28;20052;-59
2022/04/25 07:46:42;;;;;;;11.68;6.47;;;15.60;99.90;;;;;;5035933;28;20478;-60
2022/04/25 07:49:12;;;;;;;8.43;6.60;;;17.30;99.90;;;;;;5015648;28;20032;-59
2022/04/25 07:51:40;;;;;;;8.05;6.82;;;16.80;99.90;;;;;;5046039;28;20025;-58
2022/04/25 07:54:08;;;;;;;9.60;7.30;;;17.10;99.90;;;;;;5036637;28;20456;-60
2022/04/25 07:56:34;;;;;;;11.32;6.70;;;17.20;99.90;;;;;;5036153;28;20033;-60
2022/04/25 07:59:00;;;;;;;6.90;6.13;;;17.10;99.90;;;;;;5036311;28;20040;-60
2022/04/25 08:01:29;;;;;;;6.28;5.53;;;18.00;99.90;;;;;;5033690;28;20021;-60
2022/04/25 08:03:56;;;;;;;5.88;4.88;;;21.30;99.90;;;;;;5033883;28;20116;-59
2022/04/25 08:06:22;;;;;;;7.22;4.90;;;20.40;99.90;;;;;;5038058;28;20033;-59
2022/04/25 08:08:52;;;;;;;6.90;4.47;;;21.10;99.90;;;;;;5036052;28;20037;-60
2022/04/25 08:11:20;;;;;;;5.70;4.60;;;23.30;99.90;;;;;;5036096;28;20494;-60
2022/04/25 08:19:15;;;;;;;6.47;4.55;;;22.00;99.90;;;;;;5017273;28;20524;-60
2022/04/25 08:21:41;;;;;;;7.57;4.60;;;23.30;99.90;;;;;;5035954;28;20026;-60
2022/04/25 08:24:07;;;;;;;6.32;4.50;;;25.10;99.90;;;;;;5036277;28;20406;-61
2022/04/25 08:26:33;;;;;;;11.07;4.25;;;26.90;99.60;;;;;;5035862;28;20037;-60
2022/04/25 08:28:59;;;;;;;8.57;4.57;;;27.50;97.00;;;;;;5036191;28;20031;-60
2022/04/25 08:31:26;;;;;;;10.85;5.03;;;28.20;93.80;;;;;;5031808;28;20026;-60
2022/04/25 08:33:52;;;;;;;7.55;4.15;;;;;;;;;;5034195;28;20034;-60
2022/04/25 08:36:18;;;;;;;7.35;4.47;;;26.80;95.90;;;;;;5037180;28;20435;-60
2022/04/25 08:38:45;;;;;;;10.30;4.95;;;24.80;98.30;;;;;;5035409;28;20053;-60
2022/04/25 08:41:16;;;;;;;11.10;5.00;;;23.90;99.20;;;;;;5035528;28;20034;-59
2022/04/25 08:43:43;;;;;;;10.00;5.03;;;24.10;98.30;;;;;;5035357;28;20028;-59
2022/04/25 08:46:10;;;;;;;10.70;4.50;;;23.90;99.20;;;;;;5015010;28;20408;-61
2022/04/25 08:48:39;;;;;;;10.63;4.22;;;24.80;96.70;;;;;;5044257;28;20033;-60
2022/04/25 08:51:05;;;;;;;6.25;3.95;;;26.10;95.40;;;;;;5034301;28;20047;-60
2022/04/25 08:53:34;;;;;;;8.18;4.28;;;24.70;96.00;;;;;;5033906;28;20115;-60
2022/04/25 08:56:03;;;;;;;9.05;4.20;;;23.40;97.70;;;;;;5034037;28;20032;-60
2022/04/25 08:58:31;;;;;;;10.85;4.57;;;20.70;99.90;;;;;;5033538;28;20411;-60
2022/04/25 09:01:00;;;;;;;8.93;4.68;;;20.40;99.90;;;;;;5032029;28;20029;-60
2022/04/25 09:03:26;;;;;;;11.98;4.50;;;19.90;99.90;;;;;;5037206;28;20025;-60
2022/04/25 09:05:52;;;;;;;7.55;3.95;;;22.20;99.90;;;;;;5035178;28;20030;-61
2022/04/25 09:08:18;;;;;;;8.65;4.18;;;24.30;96.70;;;;;;5035278;28;20482;-61
2022/04/25 09:10:48;;;;;;;8.02;3.70;;;26.20;94.00;;;;;;5035418;28;20489;-61
2022/04/25 09:13:14;;;;;;;9.55;4.35;;;26.60;93.10;;;;;;5030848;28;20141;-61
2022/04/25 09:15:41;;;;;;;8.82;3.75;;;26.60;90.80;;;;;;5034892;28;20112;-61
2022/04/25 09:18:07;;;;;;;8.38;4.10;;;26.60;92.80;;;;;;5034489;28;20033;-61
2022/04/25 09:20:33;;;;;;;6.93;4.22;;;26.20;90.60;;;;;;5034293;28;20018;-61
2022/04/25 09:22:59;;;;;;;8.07;3.90;;;25.30;91.30;;;;;;5034887;28;20099;-61
2022/04/25 09:25:26;;;;;;;8.27;3.85;;;24.70;91.70;;;;;;5031376;28;20030;-62
2022/04/25 09:28:13;;;;;;;9.13;4.10;;;26.20;92.80;;;;;;5033114;28;20026;-62
2022/04/25 09:30:39;;;;;;;8.77;4.25;;;24.60;92.20;;;;;;5044085;28;20112;-61
2022/04/25 09:33:21;;;;;;;9.40;3.80;;;23.40;93.50;;;;;;5033564;28;20451;-61
2022/04/25 09:35:53;;;;;;;7.07;3.90;;;22.50;95.20;;;;;;5033517;28;20103;-60
2022/04/25 09:38:32;;;;;;;6.45;3.80;;;23.80;94.20;;;;;;5034588;28;20284;-60
2022/04/25 09:40:58;;;;;;;5.82;3.47;;;25.50;92.40;;;;;;5034771;28;20028;-61
2022/04/25 09:43:30;;;;;;;8.50;3.58;;;26.90;91.40;;;;;;5031720;28;20079;-60
2022/04/25 09:46:06;;;;;;;6.47;3.90;;;26.80;90.30;;;;;;5031865;28;20550;-60
2022/04/25 09:48:32;;;;;;;7.70;3.58;;;27.10;89.60;;;;;;5036658;28;20033;-60
2022/04/25 09:51:09;;;;;;;8.73;3.88;;;26.00;88.40;;;;;;5034519;28;20393;-60
2022/04/25 09:53:50;;;;;;;10.35;4.00;;;24.20;90.60;;;;;;5034293;28;20071;-60
2022/04/25 09:56:18;;;;;;;11.07;4.47;;;22.60;92.70;;;;;;5034496;28;20029;-60
2022/04/25 09:58:59;;;;;;;7.13;4.00;;;22.20;94.50;;;;;;5034393;28;20100;-60
2022/04/25 10:01:25;;;;;;;9.18;3.75;;;21.90;95.10;;;;;;5031894;28;20124;-60
2022/04/25 10:03:51;;;;;;;7.35;4.20;;;23.30;95.40;;;;;;5033384;28;20694;-61
2022/04/25 10:06:16;;;;;;;9.73;3.95;;;24.90;92.50;;;;;;5035472;28;20113;-66
2022/04/25 10:08:43;;;;;;;9.30;4.35;;;24.40;93.90;;;;;;5034570;28;20460;-65
2022/04/25 10:11:10;;;;;;;9.50;4.57;;;23.90;94.20;;;;;;5031370;28;20037;-65
2022/04/25 10:13:36;;;;;;;7.63;4.28;;;23.50;94.40;;;;;;5031577;28;20409;-66
2022/04/25 10:16:03;;;;;;;8.55;4.40;;;22.90;93.20;;;;;;5030510;28;20033;-65
2022/04/25 10:18:32;;;;;;;7.47;4.60;;;23.00;93.90;;;;;;5035871;28;20096;-65
2022/04/25 10:20:58;;;;;;;8.10;4.25;;;23.60;93.70;;;;;;5034328;28;20486;-65
2022/04/25 10:23:25;;;;;;;9.75;4.78;;;23.30;93.60;;;;;;5033504;28;20483;-65
2022/04/25 10:25:54;;;;;;;7.22;4.50;;;21.40;95.30;;;;;;5031630;28;20032;-66
2022/04/25 10:28:33;;;;;;;7.47;3.92;;;21.80;95.30;;;;;;5029509;28;20026;-60
2022/04/25 10:31:02;;;;;;;9.00;4.60;;;22.70;94.70;;;;;;5031099;28;20483;-59
2022/04/25 10:33:48;;;;;;;11.27;4.68;;;23.00;94.20;;;;;;5035667;28;20497;-61
2022/04/25 10:36:38;;;;;;;6.90;4.40;;;23.30;94.40;;;;;;5034649;28;20045;-61
2022/04/25 10:39:24;;;;;;;6.20;3.83;;;22.90;94.00;;;;;;5033329;28;20050;-60
2022/04/25 10:44:37;;;;;;;7.80;3.47;;;23.60;93.00;;;;;;5033545;28;20056;-61
2022/04/25 10:47:06;;;;;;;7.82;3.65;;;22.40;94.20;;;;;;5033943;28;20491;-61
2022/04/25 10:50:02;;;;;;;5.32;3.83;;;23.40;93.60;;;;;;5031063;28;20033;-60
2022/04/25 10:52:37;;;;;;;6.65;3.20;;;21.90;93.90;;;;;;5014258;28;20436;-61
2022/04/25 10:55:42;;;;;;;7.05;3.60;;;23.00;91.90;;;;;;5030203;28;20061;-61
2022/04/25 10:58:12;;;;;;;6.53;3.22;;;23.20;93.30;;;;;;5045531;28;20521;-61
2022/04/25 11:00:41;;;;;;;5.60;3.25;;;23.30;91.70;;;;;;5042863;28;20025;-61
2022/04/25 11:03:12;;;;;;;8.02;3.60;;;23.00;90.60;;;;;;5034335;28;20459;-61
2022/04/25 11:05:43;;;;;;;6.97;3.47;;;23.10;92.10;;;;;;5032239;28;20031;-60
2022/04/25 11:08:23;;;;;;;6.70;3.17;;;23.00;91.80;;;;;;5032192;28;20402;-59
2022/04/25 11:10:57;;;;;;;10.48;3.63;;;23.30;91.90;;;;;;5033013;28;20119;-60
2022/04/25 11:13:35;;;;;;;9.65;3.20;;;23.20;91.10;;;;;;5030301;28;20048;-60
2022/04/25 11:16:26;;;;;;;7.82;3.60;;;22.50;90.90;;;;;;5030221;28;20088;-61
2022/04/25 11:19:09;;;;;;;7.25;3.17;;;21.90;93.10;;;;;;5043512;28;20025;-61
2022/04/25 11:21:35;;;;;;;5.45;3.35;;;21.80;93.30;;;;;;5035099;28;20030;-61
2022/04/25 11:24:02;;;;;;;7.28;3.58;;;21.60;93.80;;;;;;5035838;28;20525;-61
2022/04/25 11:26:33;;;;;;;6.88;3.50;;;20.90;94.10;;;;;;5036957;28;20051;-60
2022/04/25 11:29:08;;;;;;;8.05;3.63;;;21.30;94.20;;;;;;5035348;28;20430;-60
2022/04/25 11:31:36;;;;;;;6.28;3.45;;;21.80;93.90;;;;;;5034562;28;20504;-59
2022/04/25 11:34:04;;;;;;;5.53;3.15;;;21.80;93.20;;;;;;5033268;28;20109;-59
2022/04/25 11:36:32;;;;;;;7.00;3.15;;;22.10;92.60;;;;;;5038923;28;20482;-59
2022/04/25 11:41:45;;;;;;;7.20;3.30;;;21.80;91.00;;;;;;5036839;28;20103;-60
2022/04/25 11:44:10;;;;;;;8.75;3.17;;;21.90;91.70;;;;;;5036906;28;20032;-59
2022/04/25 11:46:37;;;;;;;9.82;3.25;;;22.20;92.90;;;;;;5034247;28;20021;-61
2022/04/25 11:49:05;;;;;;;5.47;2.90;;;22.00;92.50;;;;;;5032871;28;20095;-60
2022/04/25 11:51:35;;;;;;;7.47;3.50;;;21.60;91.80;;;;;;5038207;28;20036;-60
2022/04/25 11:54:08;;;;;;;7.43;3.28;;;21.30;93.30;;;;;;5036009;28;20116;-59
2022/04/25 11:56:39;;;;;;;7.28;3.38;;;21.40;93.00;;;;;;5036573;28;20029;-60
2022/04/25 11:59:13;;;;;;;6.25;3.05;;;21.60;92.50;;;;;;5036243;28;20034;-60
2022/04/25 12:01:40;;;;;;;7.28;3.15;;;21.90;92.30;;;;;;5035743;28;20025;-60
2022/04/25 12:04:27;;;;;;;8.55;3.63;;;22.00;91.20;;;;;;5031604;28;20053;-60
2022/04/25 12:06:58;;;;;;;7.90;3.20;;;22.40;92.20;;;;;;5046716;28;20025;-60
2022/04/25 12:15:38;;;;;;;6.70;3.53;;;21.20;93.30;;;;;;5036455;28;20047;-61
2022/04/25 12:18:23;;;;;;;5.50;3.10;;;21.90;93.30;;;;;;5032460;28;20041;-61
2022/04/25 12:20:49;;;;;;;5.25;2.83;;;21.70;93.70;;;;;;5034782;28;20453;-61
2022/04/25 12:23:25;;;;;;;9.40;3.38;;;22.20;91.60;;;;;;5035487;28;20069;-61
2022/04/25 12:25:52;;;;;;;6.15;3.60;;;21.30;92.90;;;;;;5034514;28;20584;-62
2022/04/25 12:28:27;;;;;;;8.40;3.40;;;20.90;93.90;;;;;;5032307;28;20406;-61
2022/04/25 12:30:54;;;;;;;6.68;3.45;;;21.10;93.70;;;;;;5033902;28;20040;-61
2022/04/25 12:33:31;;;;;;;7.00;3.70;;;21.50;93.70;;;;;;5036548;28;20402;-61
2022/04/25 12:36:14;;;;;;;5.68;3.38;;;20.90;93.60;;;;;;5034922;28;20093;-61
2022/04/25 12:39:09;;;;;;;6.95;3.55;;;20.70;93.80;;;;;;5035387;28;20041;-61
2022/04/25 12:41:35;;;;;;;;;;;20.40;94.10;;;;;;5033789;28;20095;-61
2022/04/25 12:44:15;;;;;;;5.32;3.20;;;21.00;93.40;;;;;;5035518;28;20382;-61
2022/04/25 12:46:42;;;;;;;11.80;4.07;;;21.40;93.70;;;;;;5033648;28;20052;-60
2022/04/25 12:49:31;;;;;;;29.20;8.07;;;21.30;94.10;;;;;;5029881;28;20037;-61
2022/04/25 12:51:59;;;;;;;16.00;4.97;;;21.00;94.40;;;;;;5045256;28;20028;-63
2022/04/25 12:54:40;;;;;;;25.13;8.23;;;20.50;94.40;;;;;;5037174;28;20042;-61
2022/04/25 12:57:09;;;;;;;7.57;3.65;;;20.50;93.80;;;;;;5033982;28;20052;-62
2022/04/25 12:59:36;;;;;;;6.88;3.45;;;20.40;92.30;;;;;;5035053;28;20043;-61
2022/04/25 13:02:04;;;;;;;8.75;3.60;;;20.60;92.80;;;;;;5035260;28;20559;-61
2022/04/25 13:04:31;;;;;;;9.23;3.45;;;21.30;93.20;;;;;;5031591;28;20071;-61
2022/04/25 13:06:57;;;;;;;6.38;3.75;;;22.10;93.00;;;;;;5032442;28;20094;-62
2022/04/25 13:09:22;;;;;;;14.07;4.65;;;22.60;93.20;;;;;;5036871;28;20026;-62
2022/04/25 13:11:48;;;;;;;7.57;3.30;;;22.30;92.20;;;;;;5017214;28;20053;-61
2022/04/25 13:14:14;;;;;;;9.93;3.97;;;21.90;91.90;;;;;;5022796;28;20461;-63
2022/04/25 13:16:41;;;;;;;7.18;3.47;;;21.60;92.20;;;;;;5016661;28;20025;-60
2022/04/25 13:19:07;;;;;;;9.48;3.80;;;20.70;91.00;;;;;;5012918;28;20033;-60